Terminal Aerodrome Forecast
Issued by NWS

Home | Current Version | Previous Version | Text Only | Print | Product List | Glossary Off
Versions: 1 2 3 4 5 6 7 8 9 10 11 12 13 14 15 16 17 18 19 20 21

000
FTUS43 KTOP 281042 AAA
TAFFOE
TAF AMD
KFOE 281042Z 2811/2906 16007KT P6SM BKN023
     FM281600 23010KT P6SM BKN035
     FM290000 24004KT P6SM FEW250=

USA.gov is the U.S. government's official web portal to all federal, state and local government web resources and services.